Time;durP1;ratioP1;P1;durP2;ratioP2;P2;SDS_P1;SDS_P2;PMS_P1;PMS_P2;Temp;Humidity;BMP_temperature;BMP_pressure;BME280_temperature;BME280_humidity;BME280_pressure;Samples;Min_cycle;Max_cycle;Signal;HPM_P1;HPM_P2
2022/01/16 00:01:43;;;;;;;11.20;4.68;;;;;;;6.42;100.00;101005.06;5137621;27;20047;-83
2022/01/16 00:04:11;;;;;;;12.27;4.93;;;;;;;6.24;100.00;100978.47;5153474;27;20102;-83
2022/01/16 00:06:43;;;;;;;13.45;5.20;;;;;;;6.36;100.00;100980.00;5135279;27;20414;-84
2022/01/16 00:09:10;;;;;;;11.30;4.75;;;;;;;6.25;100.00;100984.50;5153408;27;20046;-84
2022/01/16 00:11:37;;;;;;;10.55;3.90;;;;;;;6.33;100.00;100984.41;5122582;27;20049;-84
2022/01/16 00:14:06;;;;;;;14.55;5.22;;;;;;;6.38;100.00;100986.03;5126120;27;20430;-83
2022/01/16 00:16:33;;;;;;;9.55;3.78;;;;;;;6.26;100.00;100983.63;5134961;27;20058;-84
2022/01/16 00:19:00;;;;;;;11.70;4.40;;;;;;;6.26;100.00;100994.88;5153698;27;20051;-84
2022/01/16 00:21:33;;;;;;;12.10;5.35;;;;;;;6.10;100.00;100984.75;5135453;27;20526;-84
2022/01/16 00:24:00;;;;;;;11.45;5.05;;;;;;;6.05;100.00;100959.69;5135111;27;20043;-84
2022/01/16 00:26:27;;;;;;;10.50;4.47;;;;;;;6.03;100.00;100955.41;5135419;27;20464;-84
2022/01/16 00:28:53;;;;;;;12.13;5.72;;;;;;;5.74;100.00;100966.16;5135168;27;20065;-84
2022/01/16 00:31:22;;;;;;;10.57;4.25;;;;;;;6.13;100.00;100971.72;5134700;27;20403;-84
2022/01/16 00:33:51;;;;;;;10.80;4.32;;;;;;;6.00;100.00;100948.53;5134847;27;20050;-84
2022/01/16 00:36:20;;;;;;;16.65;4.72;;;;;;;6.02;100.00;100943.28;5134432;27;20086;-84
2022/01/16 00:38:48;;;;;;;9.30;3.97;;;;;;;6.02;100.00;100931.16;5135778;27;20047;-84
2022/01/16 00:41:20;;;;;;;9.10;3.70;;;;;;;6.28;100.00;100942.88;5134646;27;20046;-84
2022/01/16 00:43:51;;;;;;;8.50;3.65;;;;;;;6.32;100.00;100947.16;5153043;27;20043;-84
2022/01/16 00:46:19;;;;;;;10.27;4.55;;;;;;;6.07;100.00;100934.53;5135373;27;20518;-84
2022/01/16 00:48:46;;;;;;;8.00;3.05;;;;;;;6.23;100.00;100939.47;5135625;27;20058;-84
2022/01/16 00:51:15;;;;;;;8.30;3.10;;;;;;;6.29;100.00;100928.13;5134440;27;20046;-83
2022/01/16 00:53:43;;;;;;;7.65;2.95;;;;;;;6.22;100.00;100911.78;5134879;27;20047;-84
2022/01/16 00:56:12;;;;;;;9.93;3.85;;;;;;;6.09;100.00;100921.50;5138973;27;20399;-84
2022/01/16 00:58:39;;;;;;;8.65;3.33;;;;;;;6.10;100.00;100912.81;5138166;27;20137;-84
2022/01/16 01:01:07;;;;;;;11.68;3.45;;;;;;;5.64;100.00;100900.50;5138388;27;20046;-84
2022/01/16 01:03:34;;;;;;;9.38;3.35;;;;;;;5.93;100.00;100920.00;5142565;27;20086;-83
2022/01/16 01:06:01;;;;;;;9.82;2.95;;;;;;;6.07;100.00;100926.75;5157123;27;20425;-84
2022/01/16 01:08:29;;;;;;;7.88;3.03;;;;;;;6.21;100.00;100928.25;5138992;27;20039;-83
2022/01/16 01:10:57;;;;;;;7.90;3.30;;;;;;;6.31;100.00;100931.56;5129315;27;20040;-83
2022/01/16 01:13:33;;;;;;;11.15;3.22;;;;;;;6.31;100.00;100936.78;5117512;27;20050;-83
2022/01/16 01:16:04;;;;;;;8.98;3.33;;;;;;;6.17;100.00;100931.78;5129491;27;20076;-83
2022/01/16 01:18:34;;;;;;;10.30;3.47;;;;;;;5.97;100.00;100916.53;5138115;27;20039;-83
2022/01/16 01:21:05;;;;;;;9.18;3.45;;;;;;;6.04;100.00;100928.53;5134200;27;20057;-83
2022/01/16 01:23:32;;;;;;;9.30;3.50;;;;;;;6.10;100.00;100936.22;5135336;27;20051;-83
2022/01/16 01:25:58;;;;;;;8.68;3.38;;;;;;;6.03;100.00;100914.66;5135311;27;20043;-83
2022/01/16 01:28:25;;;;;;;9.95;3.05;;;;;;;5.92;100.00;100913.94;5134749;27;20044;-83
2022/01/16 01:30:52;;;;;;;8.35;3.42;;;;;;;5.81;100.00;100923.66;5151704;27;20084;-83
2022/01/16 01:33:20;;;;;;;7.97;3.03;;;;;;;6.09;100.00;100895.50;5138756;27;20051;-84
2022/01/16 01:35:47;;;;;;;8.25;3.38;;;;;;;6.07;100.00;100886.88;5138383;27;20463;-84
2022/01/16 01:38:18;;;;;;;7.07;2.70;;;;;;;6.15;100.00;100897.16;5138078;27;20089;-83
2022/01/16 01:40:48;;;;;;;8.25;2.92;;;;;;;6.36;100.00;100883.78;5138040;27;20725;-84
2022/01/16 01:51:24;;;;;;;7.10;2.40;;;;;;;6.43;100.00;100898.41;5156570;27;20059;-83
2022/01/16 01:53:54;;;;;;;8.35;2.30;;;;;;;6.42;100.00;100901.88;5156520;27;20054;-83
2022/01/16 01:56:22;;;;;;;8.15;2.65;;;;;;;6.22;100.00;100916.97;5137607;27;20046;-83
2022/01/16 01:58:51;;;;;;;6.63;1.98;;;;;;;6.65;100.00;100906.66;5137831;27;20046;-83
2022/01/16 02:01:18;;;;;;;5.85;2.22;;;;;;;6.45;100.00;100899.22;5156123;27;20053;-82
2022/01/16 02:03:48;;;;;;;9.35;2.25;;;;;;;6.63;100.00;100874.59;5156777;27;20050;-83
2022/01/16 02:06:19;;;;;;;5.22;1.98;;;;;;;6.62;100.00;100906.72;5156082;27;20491;-84
2022/01/16 02:08:51;;;;;;;5.95;2.00;;;;;;;6.82;100.00;100879.47;5155886;27;20135;-84
2022/01/16 02:11:23;;;;;;;5.63;2.13;;;;;;;6.71;100.00;100884.00;5125751;27;20043;-83
2022/01/16 02:14:04;;;;;;;6.35;2.58;;;;;;;6.65;100.00;100865.03;5117079;27;20047;-84
2022/01/16 02:28:23;;;;;;;5.60;1.90;;;;;;;7.12;100.00;100801.59;5151475;27;20537;-83
2022/01/16 02:31:25;;;;;;;5.88;2.33;;;;;;;6.88;100.00;100840.28;5139682;27;20047;-83
2022/01/16 02:36:33;;;;;;;4.90;1.88;;;;;;;6.92;100.00;100877.53;5145096;27;20047;-83
2022/01/16 02:39:07;;;;;;;5.38;1.70;;;;;;;6.94;100.00;100896.56;5155992;27;20039;-83
2022/01/16 02:41:34;;;;;;;6.43;1.80;;;;;;;6.81;100.00;100883.78;5124426;27;20043;-82
2022/01/16 02:44:11;;;;;;;9.63;2.30;;;;;;;6.79;100.00;100888.19;5116454;27;20464;-84
2022/01/16 02:46:39;;;;;;;5.57;1.75;;;;;;;6.97;100.00;100881.75;5116952;27;20055;-83
2022/01/16 02:49:26;;;;;;;4.20;1.80;;;;;;;7.13;100.00;100894.47;5115724;27;20045;-83
2022/01/16 02:52:03;;;;;;;6.18;2.20;;;;;;;6.84;100.00;100877.69;5116863;27;20043;-83
2022/01/16 02:54:35;;;;;;;7.63;1.92;;;;;;;7.03;100.00;100867.78;5125981;27;20122;-83
2022/01/16 02:57:04;;;;;;;4.65;1.67;;;;;;;7.17;100.00;100899.59;5136282;27;20082;-83
2022/01/16 02:59:31;;;;;;;5.00;2.00;;;;;;;7.42;100.00;100901.66;5134629;27;20043;-84
2022/01/16 03:01:58;;;;;;;4.70;1.80;;;;;;;7.36;100.00;100896.56;5136321;27;20046;-84
2022/01/16 03:04:25;;;;;;;5.10;1.95;;;;;;;7.48;100.00;100904.13;5136427;27;20051;-84
2022/01/16 03:06:52;;;;;;;5.18;1.55;;;;;;;7.34;100.00;100908.78;5136087;27;20061;-84
2022/01/16 03:09:20;;;;;;;5.82;2.17;;;;;;;7.39;100.00;100897.38;5135539;27;20143;-84
2022/01/16 03:11:49;;;;;;;6.65;1.67;;;;;;;7.54;100.00;100910.94;5122174;27;20055;-84
2022/01/16 03:14:19;;;;;;;4.65;1.70;;;;;;;7.30;100.00;100921.00;5115846;27;20058;-84
2022/01/16 03:16:50;;;;;;;3.75;1.48;;;;;;;7.65;100.00;100910.69;5115970;27;20047;-84
2022/01/16 03:22:05;;;;;;;4.30;1.60;;;;;;;7.80;100.00;100920.78;5172403;27;20046;-83
2022/01/16 03:24:43;;;;;;;3.90;1.50;;;;;;;7.89;100.00;100917.94;5149816;27;20426;-84
2022/01/16 03:27:15;;;;;;;5.50;1.70;;;;;;;7.90;100.00;100930.09;5135208;27;20064;-84
2022/01/16 03:29:46;;;;;;;3.72;1.70;;;;;;;7.83;100.00;100912.91;5134692;27;20043;-83
2022/01/16 03:32:16;;;;;;;3.58;1.50;;;;;;;7.85;100.00;100926.75;5135795;27;20399;-83
2022/01/16 03:34:43;;;;;;;7.22;1.90;;;;;;;7.91;100.00;100928.34;5136050;27;20054;-83
2022/01/16 03:37:10;;;;;;;4.47;1.52;;;;;;;7.75;100.00;100938.28;5136018;27;20050;-83
2022/01/16 03:39:37;;;;;;;3.88;1.70;;;;;;;7.66;100.00;100943.69;5135832;27;20493;-83
2022/01/16 03:42:05;;;;;;;3.25;1.40;;;;;;;7.65;100.00;100916.78;5136059;27;20057;-83
2022/01/16 03:44:33;;;;;;;4.88;1.52;;;;;;;7.55;100.00;100895.28;5153672;27;20050;-84
2022/01/16 03:47:00;;;;;;;3.92;1.60;;;;;;;7.77;100.00;100932.16;5153621;27;20788;-83
2022/01/16 03:49:29;;;;;;;3.58;1.60;;;;;;;7.65;100.00;100911.56;5123448;27;20121;-83
2022/01/16 03:51:57;;;;;;;3.53;1.45;;;;;;;7.69;100.00;100934.06;5135849;27;20047;-84
2022/01/16 03:54:27;;;;;;;4.60;1.63;;;;;;;7.87;100.00;100940.59;5141143;27;20152;-83
2022/01/16 03:56:55;;;;;;;3.58;1.48;;;;;;;7.66;100.00;100921.09;5155667;27;20089;-83
2022/01/16 03:59:22;;;;;;;5.13;1.70;;;;;;;7.79;100.00;100947.72;5152319;27;20046;-83
2022/01/16 04:01:49;;;;;;;3.50;1.52;;;;;;;7.92;100.00;100954.38;5135254;27;20051;-83
2022/01/16 04:04:16;;;;;;;4.00;1.48;;;;;;;7.94;100.00;100942.16;5138091;27;20050;-83
2022/01/16 04:06:43;;;;;;;4.85;1.55;;;;;;;7.89;100.00;100909.28;5115000;27;20054;-83
2022/01/16 04:09:10;;;;;;;4.75;1.55;;;;;;;8.16;100.00;100933.81;5134007;27;20473;-84
2022/01/16 04:11:44;;;;;;;2.70;1.33;;;;;;;8.24;100.00;100931.06;5131673;27;20043;-83
2022/01/16 04:14:16;;;;;;;4.85;1.70;;;;;;;8.26;100.00;100931.88;5115207;27;20484;-83
2022/01/16 04:16:43;;;;;;;3.92;1.58;;;;;;;8.13;100.00;100893.03;5114809;28;20054;-83
2022/01/16 04:19:10;;;;;;;4.07;1.70;;;;;;;8.39;100.00;100935.00;5115161;27;20054;-83
2022/01/16 04:21:41;;;;;;;5.22;1.67;;;;;;;8.79;100.00;100950.53;5136107;27;20389;-82
2022/01/16 04:24:07;;;;;;;5.57;2.05;;;;;;;9.03;100.00;100955.97;5153524;27;20074;-83
2022/01/16 04:26:34;;;;;;;4.22;1.30;;;;;;;9.21;100.00;100984.22;5135102;27;20047;-84
2022/01/16 04:29:01;;;;;;;3.88;1.30;;;;;;;9.31;100.00;100962.16;5134856;27;20042;-84
2022/01/16 04:31:28;;;;;;;6.78;1.67;;;;;;;9.10;100.00;100947.06;5153451;27;20050;-83
2022/01/16 04:33:54;;;;;;;2.78;1.30;;;;;;;9.18;100.00;100970.38;5153767;27;20129;-83
2022/01/16 04:36:21;;;;;;;4.55;1.77;;;;;;;9.17;100.00;100974.75;5153294;27;20046;-84
2022/01/16 04:38:50;;;;;;;4.38;1.70;;;;;;;9.15;100.00;100993.97;5135477;27;20559;-84
2022/01/16 04:44:04;;;;;;;3.72;1.35;;;;;;;9.02;100.00;100990.84;5153595;27;20051;-84
2022/01/16 04:46:32;;;;;;;4.03;1.50;;;;;;;9.32;100.00;101021.34;5153733;27;20503;-83
2022/01/16 04:49:01;;;;;;;3.40;1.30;;;;;;;9.23;100.00;101039.88;5135680;27;20484;-83
2022/01/16 04:51:30;;;;;;;3.42;1.20;;;;;;;8.52;100.00;101035.63;5133108;27;20053;-83
2022/01/16 04:53:56;;;;;;;2.15;1.10;;;;;;;8.97;100.00;101040.56;5125145;27;20500;-83
2022/01/16 04:56:23;;;;;;;3.85;1.20;;;;;;;8.67;100.00;101031.78;5118893;27;20047;-84
2022/01/16 04:58:50;;;;;;;4.63;1.30;;;;;;;8.52;100.00;101056.50;5115479;28;20047;-84
2022/01/16 05:01:17;;;;;;;6.32;1.58;;;;;;;8.58;100.00;101065.94;5132007;27;20051;-84
2022/01/16 05:03:44;;;;;;;8.90;2.03;;;;;;;8.62;100.00;101057.97;5135258;27;20472;-84
2022/01/16 05:06:11;;;;;;;11.77;2.20;;;;;;;8.49;100.00;101059.19;5153471;27;20488;-84
2022/01/16 05:08:38;;;;;;;7.38;1.90;;;;;;;8.70;100.00;101076.94;5135194;27;20046;-84
2022/01/16 05:11:06;;;;;;;14.45;2.85;;;;;;;8.55;100.00;101061.63;5147728;27;20138;-85
2022/01/16 05:18:54;;;;;;;10.95;2.30;;;;;;;8.59;100.00;101097.22;5132494;28;20040;-84
2022/01/16 05:21:21;;;;;;;16.77;3.38;;;;;;;8.60;100.00;101105.91;5152184;27;20469;-84
2022/01/16 05:23:48;;;;;;;15.82;3.08;;;;;;;8.81;100.00;101091.47;5134559;27;20393;-84
2022/01/16 05:26:24;;;;;;;17.95;3.53;;;;;;;8.81;100.00;101100.16;5134481;27;20082;-84
2022/01/16 05:28:51;;;;;;;13.57;3.10;;;;;;;8.70;100.00;101105.66;5152542;27;20055;-84
2022/01/16 05:31:18;;;;;;;12.52;4.60;;;;;;;8.81;100.00;101099.31;5134341;27;20051;-84
2022/01/16 05:33:44;;;;;;;19.25;3.88;;;;;;;8.67;100.00;101117.91;5153139;27;20099;-84
2022/01/16 05:36:11;;;;;;;19.67;4.30;;;;;;;8.32;100.00;101124.75;5134286;27;20046;-84
2022/01/16 05:38:38;;;;;;;17.27;3.55;;;;;;;8.61;100.00;101129.38;5133950;27;20043;-84
2022/01/16 05:41:05;;;;;;;20.67;4.22;;;;;;;8.74;100.00;101133.38;5150598;27;20061;-84
2022/01/16 05:43:32;;;;;;;15.55;3.75;;;;;;;8.68;100.00;101154.44;5137870;27;20499;-84
2022/01/16 05:45:59;;;;;;;24.17;4.45;;;;;;;8.49;100.00;101163.56;5138024;27;20047;-84
2022/01/16 05:48:28;;;;;;;18.85;4.88;;;;;;;7.95;100.00;101136.84;5156692;27;20039;-84
2022/01/16 05:50:55;;;;;;;19.58;3.80;;;;;;;8.59;100.00;101167.69;5138279;27;20139;-84
2022/01/16 05:53:22;;;;;;;16.52;4.25;;;;;;;8.58;100.00;101158.13;5144545;27;20050;-84
2022/01/16 05:55:49;;;;;;;18.05;3.78;;;;;;;8.42;100.00;101151.53;5155283;27;20050;-83
2022/01/16 05:58:16;;;;;;;23.92;5.15;;;;;;;8.40;100.00;101153.31;5142136;27;20046;-84
2022/01/16 06:00:47;;;;;;;29.88;4.10;;;;;;;7.84;100.00;101156.19;5137543;27;20046;-84
2022/01/16 06:03:15;;;;;;;21.13;3.40;;;;;;;8.27;100.00;101165.75;5137770;27;20046;-84
2022/01/16 06:05:42;;;;;;;17.33;3.75;;;;;;;8.06;100.00;101167.06;5137793;27;20047;-84
2022/01/16 06:08:13;;;;;;;18.08;4.50;;;;;;;8.01;100.00;101177.59;5138238;27;20495;-84
2022/01/16 06:10:40;;;;;;;22.83;5.28;;;;;;;8.11;100.00;101141.72;5137725;27;20042;-84
2022/01/16 06:13:08;;;;;;;15.25;3.38;;;;;;;8.25;100.00;101186.66;5137153;27;20057;-84
2022/01/16 06:15:35;;;;;;;17.42;4.07;;;;;;;8.08;100.00;101189.59;5155890;27;20043;-83
2022/01/16 06:18:03;;;;;;;17.10;3.58;;;;;;;7.90;100.00;101174.34;5138247;27;20043;-83
2022/01/16 06:20:30;;;;;;;18.30;4.07;;;;;;;8.11;100.00;101186.06;5134243;27;20147;-83
2022/01/16 06:22:57;;;;;;;20.63;3.30;;;;;;;7.83;100.00;101189.22;5137316;27;20703;-83
2022/01/16 06:25:24;;;;;;;17.77;3.10;;;;;;;7.78;100.00;101201.50;5137783;27;20069;-83
2022/01/16 06:27:51;;;;;;;21.02;6.43;;;;;;;7.63;100.00;101204.38;5137177;27;20085;-84
2022/01/16 06:30:19;;;;;;;23.15;3.72;;;;;;;7.76;100.00;101237.16;5150277;27;20176;-84
2022/01/16 06:32:50;;;;;;;26.08;4.85;;;;;;;7.61;100.00;101235.66;5122348;27;20039;-84
2022/01/16 06:35:17;;;;;;;20.27;3.97;;;;;;;7.84;100.00;101261.31;5126355;27;20054;-84
2022/01/16 06:37:44;;;;;;;28.23;4.25;;;;;;;7.50;100.00;101258.44;5146200;27;20062;-84
2022/01/16 06:40:12;;;;;;;17.45;3.65;;;;;;;7.64;100.00;101274.72;5129215;27;20053;-84
2022/01/16 06:42:40;;;;;;;24.40;4.10;;;;;;;7.39;100.00;101271.66;5126444;27;20085;-84
2022/01/16 06:45:09;;;;;;;20.55;4.30;;;;;;;7.74;100.00;101245.00;5128864;27;20090;-84
2022/01/16 06:47:36;;;;;;;16.02;3.35;;;;;;;8.11;100.00;101267.81;5148120;27;20473;-83
2022/01/16 06:50:04;;;;;;;14.63;3.00;;;;;;;8.09;100.00;101258.25;5135291;27;20044;-84
2022/01/16 06:52:31;;;;;;;19.08;4.45;;;;;;;7.74;100.00;101281.50;5128243;27;20046;-84
2022/01/16 06:54:58;;;;;;;17.17;3.20;;;;;;;7.65;100.00;101293.81;5127313;27;20509;-84
2022/01/16 06:57:24;;;;;;;14.32;3.78;;;;;;;7.64;100.00;101305.97;5126568;27;20046;-84
2022/01/16 06:59:51;;;;;;;18.70;4.15;;;;;;;7.45;100.00;101301.94;5127967;27;20047;-84
2022/01/16 07:02:18;;;;;;;18.35;3.50;;;;;;;7.59;100.00;101292.16;5127892;27;20492;-84
2022/01/16 07:04:45;;;;;;;30.00;6.03;;;;;;;7.34;100.00;101302.97;5124431;27;20046;-84
2022/01/16 07:07:13;;;;;;;22.65;5.47;;;;;;;7.57;100.00;101294.78;5146004;27;20043;-84
2022/01/16 07:09:44;;;;;;;16.73;3.60;;;;;;;7.50;100.00;101303.59;5131083;27;20392;-85
2022/01/16 07:12:11;;;;;;;18.35;3.72;;;;;;;7.65;100.00;101325.09;5143816;27;20050;-84
2022/01/16 07:14:38;;;;;;;18.05;3.15;;;;;;;7.23;100.00;101336.13;5134754;27;20046;-84
2022/01/16 07:17:05;;;;;;;17.95;3.78;;;;;;;7.31;100.00;101318.66;5131629;27;20055;-84
2022/01/16 07:19:31;;;;;;;17.08;4.32;;;;;;;7.24;100.00;101345.66;5130270;27;20039;-82
2022/01/16 07:21:58;;;;;;;18.90;4.38;;;;;;;7.64;100.00;101337.25;5136596;27;20372;-84
2022/01/16 07:24:25;;;;;;;16.15;3.45;;;;;;;7.41;100.00;101341.06;5127083;27;20047;-84
2022/01/16 07:26:53;;;;;;;18.70;2.88;;;;;;;7.25;100.00;101352.59;5126695;27;20054;-84
2022/01/16 07:29:20;;;;;;;20.27;4.50;;;;;;;7.38;100.00;101355.88;5125845;27;20046;-84
2022/01/16 07:31:47;;;;;;;16.52;3.40;;;;;;;7.17;100.00;101370.94;5129687;27;20043;-84
2022/01/16 07:34:14;;;;;;;20.75;3.45;;;;;;;7.29;100.00;101366.44;5130460;27;20137;-84
2022/01/16 07:36:40;;;;;;;21.05;3.50;;;;;;;6.94;100.00;101383.38;5129874;27;20043;-84
2022/01/16 07:39:07;;;;;;;19.30;3.75;;;;;;;6.91;100.00;101394.72;5123773;27;20091;-84
2022/01/16 07:41:34;;;;;;;17.08;3.28;;;;;;;6.98;100.00;101414.59;5127433;27;20047;-84
2022/01/16 07:44:01;;;;;;;18.65;3.42;;;;;;;7.38;100.00;101423.63;5123859;27;20051;-84
2022/01/16 07:46:28;;;;;;;17.60;4.03;;;;;;;7.35;100.00;101431.50;5142562;27;20071;-85
2022/01/16 07:48:56;;;;;;;20.02;4.32;;;;;;;7.09;100.00;101456.13;5125425;27;20051;-84
2022/01/16 07:51:24;;;;;;;20.48;4.00;;;;;;;7.11;100.00;101467.38;5125524;27;20046;-84
2022/01/16 07:53:55;;;;;;;16.25;3.38;;;;;;;6.96;100.00;101471.03;5126805;27;20049;-84
2022/01/16 07:56:22;;;;;;;17.00;3.28;;;;;;;7.12;100.00;101481.25;5141323;27;20046;-84
2022/01/16 07:58:49;;;;;;;17.40;3.17;;;;;;;7.05;100.00;101483.09;5136810;27;20043;-84
2022/01/16 08:01:16;;;;;;;16.52;3.45;;;;;;;7.01;100.00;101497.88;5129721;27;20399;-84
2022/01/16 08:03:43;;;;;;;17.88;3.95;;;;;;;6.68;100.00;101506.03;5123319;27;20074;-84
2022/01/16 08:06:10;;;;;;;19.50;3.00;;;;;;;7.00;100.00;101516.97;5125314;27;20050;-84
2022/01/16 08:08:38;;;;;;;16.02;2.97;;;;;;;7.01;100.00;101495.28;5124301;27;20046;-84
2022/01/16 08:11:04;;;;;;;16.38;3.33;;;;;;;7.23;100.00;101513.25;5132528;27;20518;-83
2022/01/16 08:13:31;;;;;;;13.80;4.20;;;;;;;6.95;100.00;101515.28;5131751;27;20043;-82
2022/01/16 08:15:58;;;;;;;14.63;3.38;;;;;;;7.25;100.00;101529.72;5126500;27;20057;-84
2022/01/16 08:18:25;;;;;;;21.00;3.38;;;;;;;6.80;100.00;101506.75;5141919;27;20051;-84
2022/01/16 08:20:51;;;;;;;16.80;2.95;;;;;;;6.96;100.00;101511.81;5130280;27;20039;-84
2022/01/16 08:23:18;;;;;;;20.13;3.90;;;;;;;6.64;100.00;101518.19;5144275;27;20122;-84
2022/01/16 08:25:45;;;;;;;15.85;3.35;;;;;;;6.68;100.00;101524.25;5144381;27;20092;-84
2022/01/16 08:28:11;;;;;;;18.17;3.10;;;;;;;6.81;100.00;101523.22;5125057;27;20077;-84
2022/01/16 08:30:38;;;;;;;20.75;3.47;;;;;;;6.82;100.00;101527.56;5128468;27;20047;-83
2022/01/16 08:33:05;;;;;;;17.58;2.83;;;;;;;6.62;100.00;101526.00;5124681;27;20038;-84
2022/01/16 08:35:32;;;;;;;15.23;4.20;;;;;;;6.70;100.00;101535.50;5128386;27;20050;-84
2022/01/16 08:37:58;;;;;;;16.13;5.45;;;;;;;6.43;100.00;101514.88;5128561;27;20050;-84
2022/01/16 08:40:25;;;;;;;24.92;4.18;;;;;;;6.53;100.00;101530.41;5149845;27;20047;-84
2022/01/16 08:42:52;;;;;;;14.88;3.15;;;;;;;6.95;100.00;101531.78;5126127;27;20129;-84
2022/01/16 08:45:19;;;;;;;16.70;2.88;;;;;;;6.91;100.00;101542.25;5122577;27;20051;-84
2022/01/16 08:47:46;;;;;;;10.63;2.45;;;;;;;7.21;100.00;101552.34;5125827;27;20421;-84
2022/01/16 08:50:14;;;;;;;11.27;2.58;;;;;;;6.72;100.00;101539.78;5130721;27;20047;-85
2022/01/16 08:52:42;;;;;;;24.85;5.35;;;;;;;6.72;100.00;101562.38;5125925;27;20047;-85
2022/01/16 08:55:10;;;;;;;12.20;2.10;;;;;;;6.95;100.00;101556.94;5147153;27;20484;-85
2022/01/16 08:57:37;;;;;;;10.77;2.50;;;;;;;6.86;100.00;101562.25;5125723;27;20049;-84
2022/01/16 09:00:07;;;;;;;12.27;2.10;;;;;;;7.10;100.00;101587.19;5125385;27;20043;-84
2022/01/16 09:02:34;;;;;;;14.60;2.83;;;;;;;7.09;100.00;101573.31;5144462;27;20054;-85
2022/01/16 09:05:02;;;;;;;11.85;2.10;;;;;;;7.16;100.00;101577.56;5144942;27;20044;-85
2022/01/16 09:07:29;;;;;;;13.82;2.88;;;;;;;7.27;100.00;101581.81;5125789;27;20045;-85
2022/01/16 09:09:57;;;;;;;15.73;2.58;;;;;;;7.02;100.00;101597.69;5144946;27;20047;-84
2022/01/16 09:12:24;;;;;;;13.35;2.47;;;;;;;7.06;100.00;101590.69;5141471;27;20051;-85
2022/01/16 09:14:52;;;;;;;12.20;2.70;;;;;;;7.01;100.00;101595.94;5143974;27;20079;-85
2022/01/16 09:17:19;;;;;;;14.38;3.00;;;;;;;6.96;100.00;101584.72;5128169;27;20054;-84
2022/01/16 09:19:46;;;;;;;12.98;2.70;;;;;;;6.45;100.00;101596.38;5128804;27;20498;-85
2022/01/16 09:22:14;;;;;;;18.00;3.33;;;;;;;6.96;100.00;101603.81;5128193;27;20050;-85
2022/01/16 09:24:40;;;;;;;12.85;3.53;;;;;;;7.14;100.00;101610.59;5124574;27;20499;-85
2022/01/16 09:27:07;;;;;;;12.50;3.30;;;;;;;7.11;100.00;101597.59;5128575;27;20053;-84
2022/01/16 09:29:34;;;;;;;10.45;2.42;;;;;;;7.06;100.00;101608.94;5129344;27;20070;-84
2022/01/16 09:32:01;;;;;;;10.77;2.45;;;;;;;7.08;100.00;101617.59;5130509;27;20046;-83
2022/01/16 09:34:28;;;;;;;14.23;2.72;;;;;;;7.14;100.00;101634.03;5132256;27;20047;-84
2022/01/16 09:36:55;;;;;;;18.27;4.20;;;;;;;7.18;100.00;101612.28;5127088;27;20061;-84
2022/01/16 09:39:22;;;;;;;10.57;2.38;;;;;;;7.23;100.00;101654.78;5133173;27;20050;-84
2022/01/16 09:41:48;;;;;;;10.05;2.30;;;;;;;7.31;100.00;101639.09;5136987;27;20095;-84
2022/01/16 09:44:17;;;;;;;15.60;2.60;;;;;;;7.24;100.00;101650.41;5127587;27;20055;-84
2022/01/16 09:46:43;;;;;;;14.93;2.42;;;;;;;7.16;100.00;101636.63;5129702;27;20070;-84
2022/01/16 09:49:10;;;;;;;17.45;2.80;;;;;;;7.17;100.00;101615.78;5124377;27;20822;-84
2022/01/16 09:51:37;;;;;;;14.10;2.80;;;;;;;7.38;100.00;101658.09;5126740;27;20051;-85
2022/01/16 09:54:04;;;;;;;9.20;2.40;;;;;;;7.51;100.00;101646.69;5147840;27;20133;-84
2022/01/16 09:56:31;;;;;;;14.45;3.15;;;;;;;7.15;100.00;101620.13;5128518;27;20134;-85
2022/01/16 09:59:02;;;;;;;13.57;3.15;;;;;;;7.30;100.00;101652.13;5136135;27;20464;-85
2022/01/16 10:01:28;;;;;;;12.05;2.45;;;;;;;7.17;100.00;101640.94;5126318;27;20061;-85
2022/01/16 10:03:55;;;;;;;13.70;2.38;;;;;;;7.41;100.00;101640.69;5129243;27;20100;-85
2022/01/16 10:06:24;;;;;;;12.18;3.35;;;;;;;7.49;100.00;101663.22;5147217;27;20061;-84
2022/01/16 10:08:53;;;;;;;8.75;2.30;;;;;;;7.70;100.00;101669.94;5149960;27;20133;-83
2022/01/16 10:11:28;;;;;;;9.38;1.90;;;;;;;7.93;100.00;101680.13;5145736;27;20043;-84
2022/01/16 10:14:21;;;;;;;18.35;3.38;;;;;;;7.97;100.00;101653.16;5147747;27;20082;-84
2022/01/16 10:16:47;;;;;;;11.70;2.35;;;;;;;7.70;100.00;101657.81;5150141;27;20124;-83
2022/01/16 10:19:26;;;;;;;7.78;1.90;;;;;;;7.74;100.00;101672.53;5145750;27;20130;-84
2022/01/16 10:22:01;;;;;;;9.90;2.15;;;;;;;7.73;100.00;101669.94;5146764;27;20042;-84
2022/01/16 10:24:33;;;;;;;17.35;3.28;;;;;;;7.40;100.00;101687.63;5131570;27;20042;-84
2022/01/16 10:27:09;;;;;;;15.50;3.50;;;;;;;7.38;100.00;101684.16;5135976;27;20056;-83
2022/01/16 10:29:46;;;;;;;16.70;3.47;;;;;;;7.54;100.00;101664.91;5135800;27;20043;-84
2022/01/16 10:32:31;;;;;;;13.68;2.53;;;;;;;7.54;100.00;101684.88;5128472;27;21337;-83
2022/01/16 10:35:36;;;;;;;12.88;2.28;;;;;;;7.57;100.00;101692.69;5149931;27;20046;-84
2022/01/16 10:38:03;;;;;;;8.68;2.58;;;;;;;7.39;100.00;101697.19;5089036;28;20050;-84
2022/01/16 10:40:36;;;;;;;18.00;2.63;;;;;;;7.51;100.00;101693.59;5120243;27;20105;-85
2022/01/16 10:43:13;;;;;;;14.82;2.70;;;;;;;7.72;100.00;101699.47;5132039;27;20082;-85
2022/01/16 10:45:42;;;;;;;13.43;2.22;;;;;;;7.63;100.00;101713.44;5145215;27;20044;-85
2022/01/16 10:48:11;;;;;;;10.48;2.08;;;;;;;7.76;100.00;101695.97;5144550;27;20138;-85
2022/01/16 10:50:43;;;;;;;12.25;2.00;;;;;;;8.16;100.00;101695.50;5149185;27;20137;-85
2022/01/16 10:53:19;;;;;;;11.10;2.55;;;;;;;8.17;100.00;101711.13;5145489;27;20052;-85
2022/01/16 10:55:48;;;;;;;19.42;2.58;;;;;;;7.67;100.00;101716.94;5134091;27;20042;-85
2022/01/16 10:58:38;;;;;;;10.80;2.00;;;;;;;8.27;100.00;101717.13;5132077;27;20038;-84
2022/01/16 11:01:13;;;;;;;9.45;2.30;;;;;;;7.95;100.00;101714.88;5122202;27;20042;-85
2022/01/16 11:03:45;;;;;;;8.93;2.00;;;;;;;8.15;100.00;101719.88;5127642;27;20051;-88
2022/01/16 11:06:13;;;;;;;12.18;2.40;;;;;;;7.82;100.00;101734.16;5131712;27;20055;-88
2022/01/16 11:08:40;;;;;;;14.05;3.13;;;;;;;7.85;100.00;101744.56;5126334;27;20475;-87
2022/01/16 11:11:07;;;;;;;11.75;1.90;;;;;;;8.18;100.00;101751.16;5127084;27;20046;-88
2022/01/16 11:13:35;;;;;;;8.57;1.98;;;;;;;7.82;100.00;101659.38;5141807;27;20046;-88
2022/01/16 11:16:07;;;;;;;8.85;1.83;;;;;;;8.20;100.00;101744.16;5146013;27;20054;-88
2022/01/16 11:18:47;;;;;;;12.00;2.15;;;;;;;7.68;100.00;101742.94;5127608;27;20769;-88
2022/01/16 11:21:20;;;;;;;6.68;2.10;;;;;;;8.17;100.00;101744.19;5132003;27;20046;-87
2022/01/16 11:24:36;;;;;;;10.18;1.95;;;;;;;8.02;100.00;101732.19;5126703;27;20062;-87
2022/01/16 11:26:37;;;;;;;10.88;3.08;;;;;;;8.08;100.00;101723.44;5131211;27;20046;-87
2022/01/16 11:29:04;;;;;;;10.63;2.40;;;;;;;8.23;100.00;101719.78;5128690;27;20138;-86
2022/01/16 11:31:31;;;;;;;8.07;1.92;;;;;;;8.29;100.00;101706.66;5120623;27;20050;-87
2022/01/16 11:33:58;;;;;;;8.98;1.85;;;;;;;8.08;100.00;101726.91;5150289;27;20050;-87
2022/01/16 11:36:28;;;;;;;11.70;2.03;;;;;;;8.36;100.00;101755.28;5148261;27;20487;-87
2022/01/16 11:38:57;;;;;;;10.75;1.95;;;;;;;8.53;100.00;101765.53;5145365;27;20046;-87
2022/01/16 11:41:35;;;;;;;8.43;1.92;;;;;;;8.09;100.00;101702.56;5147646;27;20053;-87
2022/01/16 11:44:21;;;;;;;9.35;2.30;;;;;;;8.58;100.00;101765.50;5149832;27;20134;-87
2022/01/16 11:46:51;;;;;;;12.55;2.10;;;;;;;8.77;100.00;101779.19;5153432;27;20043;-89
2022/01/16 11:49:33;;;;;;;6.25;1.33;;;;;;;8.46;100.00;101779.53;5130731;27;20481;-89
2022/01/16 11:52:18;;;;;;;6.35;1.55;;;;;;;8.59;100.00;101775.91;5130595;27;20051;-89
2022/01/16 11:54:48;;;;;;;7.88;2.85;;;;;;;8.33;100.00;101770.97;5150283;27;20058;-88
2022/01/16 11:57:18;;;;;;;12.07;2.88;;;;;;;8.68;100.00;101796.69;5134977;27;20050;-88
2022/01/16 12:00:09;;;;;;;7.60;1.55;;;;;;;8.70;100.00;101775.78;5128603;27;20052;-87
2022/01/16 12:02:42;;;;;;;7.30;1.95;;;;;;;8.32;100.00;101774.44;5143161;27;20054;-88